Lip On The Sea II — FAE8006 — position and weather

sailwx.info

Track history (hours):
 
Tides and Currents Weather Stations Pressure Air Temp Water Temp Dewpoint Dewpoint Depression Visibility Wind Speed Wind Dir Waves Ship Positions

Lip On The Sea II

Last reported at 2017-Oct-11 00:00 UTC. Time now 2017-Dec-14 13:23 UTC.
Position N 35°45' W 013°17'.
Warning: this ship's position is months out of date.

Length 15 m.

Type: Sailing vessel. MMSI: 227813890.

Date/timePositionNaut miles runAvg speedWind from/ knotsBaromVisibWave heightAir tempDewpointWater temp
2017-Oct-11 00:00N 35°45' W 013°17'7 6.2
2017-Oct-10 22:53N 35°49' W 013°10'3 6.4
2017-Oct-10 22:29N 35°51' W 013°08'6 6.7
2017-Oct-10 21:37N 35°54' W 013°02'1 6.7
2017-Oct-10 21:30N 35°55' W 013°01'5 6.6
2017-Oct-10 20:44N 35°58' W 012°57'2 6.3
2017-Oct-10 20:21N 35°60' W 012°54'4 6.5
2017-Oct-10 19:43N 36°02' W 012°51'2 6.4
2017-Oct-10 19:28N 36°03' W 012°49'3 6.5
2017-Oct-10 18:59N 36°05' W 012°46'3 6.5
2017-Oct-10 18:30N 36°07' W 012°43'3 6.5
2017-Oct-10 18:00N 36°09' W 012°40'29 7.1
2017-Oct-10 13:55N 36°29' W 012°14'6 6.7
2017-Oct-10 12:58N 36°34' W 012°08'3 6.8
2017-Oct-10 12:30N 36°36' W 012°06'4 7.9
2017-Oct-10 12:00N 36°39' W 012°03'3 6.1
2017-Oct-10 11:30N 36°42' W 012°00'3 5.0
2017-Oct-10 11:00N 36°43' W 011°58'3 7.0
2017-Oct-10 10:30N 36°46' W 011°55'4 7.1
2017-Oct-10 10:00N 36°49' W 011°52'4 7.1
2017-Oct-10 09:30N 36°51' W 011°49'4 7.2
2017-Oct-10 09:00N 36°54' W 011°46'8 7.0
2017-Oct-10 07:50N 36°60' W 011°39'3 7.5
2017-Oct-10 07:29N 37°01' W 011°36'4 8.0
2017-Oct-10 07:00N 37°04' W 011°33'4 7.8
2017-Oct-10 06:27N 37°07' W 011°29'10 7.5
2017-Oct-10 05:07N 37°14' W 011°20'2 7.6
2017-Oct-10 04:55N 37°15' W 011°19'3 6.8
2017-Oct-10 04:30N 37°17' W 011°16'3 6.2
2017-Oct-10 04:00N 37°19' W 011°14'3 6.2
2017-Oct-10 03:30N 37°22' W 011°11'3 6.2
2017-Oct-10 03:00N 37°24' W 011°08'3 6.5
2017-Oct-10 02:30N 37°26' W 011°05'3 6.7
2017-Oct-10 02:00N 37°29' W 011°02'3 6.5
2017-Oct-10 01:30N 37°31' W 010°60'3 6.5
2017-Oct-10 01:00N 37°34' W 010°57'3 6.6
2017-Oct-10 00:30N 37°36' W 010°54'3 6.4
2017-Oct-10 00:00N 37°38' W 010°51'3 6.9
2017-Oct-09 23:30N 37°40' W 010°48'4 7.2
2017-Oct-09 23:00N 37°43' W 010°44'4 7.4
2017-Oct-09 22:30N 37°45' W 010°41'4 7.3
2017-Oct-09 22:00N 37°47' W 010°37'4 7.1
2017-Oct-09 21:30N 37°50' W 010°34'3 7.0
2017-Oct-09 21:00N 37°52' W 010°31'4 7.0
2017-Oct-09 20:30N 37°55' W 010°28'3 6.5
2017-Oct-09 20:00N 37°58' W 010°26'3 6.4
2017-Oct-09 19:30N 38°00' W 010°23'3 6.1
2017-Oct-09 19:00N 38°02' W 010°20'3 6.9
2017-Oct-09 18:30N 38°05' W 010°17'3 6.2
2017-Oct-09 18:00N 38°07' W 010°14'3 6.4
2017-Oct-09 17:30N 38°09' W 010°11'3 6.9
2017-Oct-09 17:00N 38°11' W 010°08'4 7.1
2017-Oct-09 16:30N 38°13' W 010°05'3 6.6
2017-Oct-09 16:00N 38°16' W 010°01'4 7.2
2017-Oct-09 15:30N 38°18' W 009°58'4 7.0
2017-Oct-09 15:00N 38°20' W 009°55'4 7.2
2017-Oct-09 14:30N 38°23' W 009°51'3 6.9
2017-Oct-09 14:00N 38°25' W 009°48'3 6.7
2017-Oct-09 13:30N 38°27' W 009°45'3 6.7
2017-Oct-09 13:00N 38°29' W 009°41'4 7.1
2017-Oct-09 12:30N 38°32' W 009°38'4 7.8
2017-Oct-09 12:00N 38°34' W 009°34'4 7.0
2017-Oct-09 11:30N 38°37' W 009°31'3 6.5
2017-Oct-09 11:00N 38°39' W 009°28'3 5.6
2017-Oct-09 10:30N 38°41' W 009°25'1 1.7
2017-Oct-09 09:59N 38°42' W 009°25'0 0.5
2017-Oct-09 09:28N 38°41' W 009°25'0 0.0
2017-Oct-09 08:59N 38°41' W 009°25'0 0.0
2017-Oct-09 08:28N 38°41' W 009°25'0 0.0
2017-Oct-09 07:59N 38°41' W 009°25'0 0.0
2017-Oct-09 07:28N 38°41' W 009°25'0 0.0
2017-Oct-09 06:58N 38°41' W 009°25'0 0.0
2017-Oct-09 06:28N 38°41' W 009°25'0 0.0
2017-Oct-09 05:58N 38°41' W 009°25'0 0.0
2017-Oct-09 05:25N 38°41' W 009°25'0 0.0
2017-Oct-09 04:58N 38°41' W 009°25'0 0.0
2017-Oct-09 04:28N 38°41' W 009°25'0 0.0
2017-Oct-09 03:58N 38°41' W 009°25'0 0.0
2017-Oct-09 03:28N 38°41' W 009°25'0 0.0
2017-Oct-09 02:58N 38°41' W 009°25'0 0.0
2017-Oct-09 02:28N 38°41' W 009°25'0 0.0
2017-Oct-09 01:59N 38°41' W 009°25'0 0.0
2017-Oct-09 01:28N 38°41' W 009°25'0 0.0
2017-Oct-09 00:58N 38°41' W 009°25'0 0.0
2017-Oct-09 00:28N 38°41' W 009°25'0 0.0
2017-Oct-08 23:58N 38°41' W 009°25'0 0.0
2017-Oct-08 23:28N 38°41' W 009°25'0 0.0
2017-Oct-08 22:58N 38°41' W 009°25'0 0.0
2017-Oct-08 22:28N 38°41' W 009°25'0 0.0
2017-Oct-08 21:58N 38°41' W 009°25'0 0.0
2017-Oct-08 21:28N 38°41' W 009°25'0 0.0
2017-Oct-08 20:58N 38°41' W 009°25'0 0.0
2017-Oct-08 20:28N 38°41' W 009°25'0 0.0
2017-Oct-08 19:58N 38°41' W 009°25'0 0.0
2017-Oct-08 19:28N 38°41' W 009°25'0 0.0
2017-Oct-08 18:58N 38°41' W 009°25'0 0.0
2017-Oct-08 18:28N 38°41' W 009°25'0 0.0
2017-Oct-08 17:56N 38°41' W 009°25'0 0.0
2017-Oct-08 17:28N 38°41' W 009°25'0 0.0
2017-Oct-08 16:58N 38°41' W 009°25'0 0.0
2017-Oct-08 16:28N 38°41' W 009°25'0 0.0
2017-Oct-08 15:55N 38°41' W 009°25'0 0.0
2017-Oct-08 15:28N 38°41' W 009°25'0 0.0
2017-Oct-08 14:59N 38°41' W 009°25'0 0.0
2017-Oct-08 14:25N 38°41' W 009°25'0 0.0
2017-Oct-08 13:58N 38°41' W 009°25'0 0.0
2017-Oct-08 13:25N 38°41' W 009°25'0 0.0
2017-Oct-08 12:59N 38°41' W 009°25'0 0.0
2017-Oct-08 12:25N 38°41' W 009°25'0 0.0
2017-Oct-08 11:58N 38°41' W 009°25'0 0.0
2017-Oct-08 11:25N 38°41' W 009°25'0 0.0
2017-Oct-08 10:59N 38°41' W 009°25'0 0.0
2017-Oct-08 10:28N 38°41' W 009°25'0 0.0
2017-Oct-08 09:55N 38°41' W 009°25'0 0.0
2017-Oct-08 09:25N 38°41' W 009°25'0 0.0
2017-Oct-08 08:58N 38°41' W 009°25'0 0.0
2017-Oct-08 08:28N 38°41' W 009°25'0 0.0
2017-Oct-08 07:58N 38°41' W 009°25'0 0.0
2017-Oct-08 07:29N 38°41' W 009°25'0 0.0
2017-Oct-08 06:58N 38°41' W 009°25'0 0.0
2017-Oct-08 06:28N 38°41' W 009°25'0 0.0
2017-Oct-08 05:58N 38°41' W 009°25'0 0.0
2017-Oct-08 05:28N 38°41' W 009°25'0 0.0
2017-Oct-08 04:52N 38°41' W 009°25'0 0.0
2017-Oct-08 04:25N 38°41' W 009°25'0 0.0
2017-Oct-08 03:58N 38°41' W 009°25'0 0.0
2017-Oct-08 03:28N 38°41' W 009°25'0 0.0
2017-Oct-08 02:58N 38°41' W 009°25'0 0.0
2017-Oct-08 02:28N 38°41' W 009°25'0 0.0
2017-Oct-08 01:58N 38°41' W 009°25'0 0.0
2017-Oct-08 01:25N 38°41' W 009°25'0 0.0
2017-Oct-08 00:58N 38°41' W 009°25'0 0.0
2017-Oct-08 00:25N 38°41' W 009°25'0 0.0
2017-Oct-07 23:55N 38°41' W 009°25'0 0.0
2017-Oct-07 23:29N 38°41' W 009°25'0 0.0
2017-Oct-07 22:58N 38°41' W 009°25'0 0.0
2017-Oct-07 22:25N 38°41' W 009°25'0 0.0
2017-Oct-07 21:58N 38°41' W 009°25'0 0.0
2017-Oct-07 21:25N 38°41' W 009°25'0 0.0
2017-Oct-07 20:58N 38°41' W 009°25'0 0.0
2017-Oct-07 20:25N 38°41' W 009°25'0 0.0
2017-Oct-07 19:59N 38°41' W 009°25'0 0.0
2017-Oct-07 19:28N 38°41' W 009°25'0 0.0
2017-Oct-07 18:58N 38°41' W 009°25'0 0.0
2017-Oct-07 18:22N 38°41' W 009°25'3 6.0
2017-Oct-07 17:53N 38°41' W 009°21'3 8.5
2017-Oct-07 17:30N 38°41' W 009°17'5 9.1
2017-Oct-07 16:59N 38°42' W 009°11'3 6.1
2017-Oct-07 16:30N 38°42' W 009°07'2 0.8
2017-Oct-07 14:32N 38°41' W 009°09'0 0.1
2017-Oct-07 14:07N 38°41' W 009°09'1 5.3
2017-Oct-07 13:58N 38°41' W 009°10'5 8.7
2017-Oct-07 13:23N 38°41' W 009°17'4 8.6
2017-Oct-07 12:53N 38°41' W 009°22'2 5.5
2017-Oct-07 12:27N 38°41' W 009°25'0 0.0
2017-Oct-07 12:00N 38°41' W 009°25'0 0.0
2017-Oct-07 11:27N 38°41' W 009°25'0 0.0
2017-Oct-07 11:00N 38°41' W 009°25'0 0.0
2017-Oct-07 10:30N 38°41' W 009°25'0 0.0
2017-Oct-07 10:00N 38°41' W 009°25'0 0.0
2017-Oct-07 09:27N 38°41' W 009°25'0 0.0
2017-Oct-07 09:00N 38°41' W 009°25'0 0.0
2017-Oct-07 08:30N 38°41' W 009°25'0 0.0
2017-Oct-07 07:57N 38°41' W 009°25'0 0.0
2017-Oct-07 07:30N 38°41' W 009°25'0 0.0
2017-Oct-07 06:57N 38°41' W 009°25'0 0.0
2017-Oct-07 06:24N 38°41' W 009°25'0 0.0
2017-Oct-07 06:00N 38°41' W 009°25'0 0.0
2017-Oct-07 05:28N 38°41' W 009°25'0 0.0
2017-Oct-07 04:55N 38°41' W 009°25'0 0.0
2017-Oct-07 04:17N 38°41' W 009°25'0 0.0
2017-Oct-07 03:53N 38°41' W 009°25'0 0.0
2017-Oct-07 03:29N 38°41' W 009°25'0 0.0
2017-Oct-07 02:59N 38°41' W 009°25'0 0.0
2017-Oct-07 02:29N 38°41' W 009°25'0 0.0
2017-Oct-07 01:59N 38°41' W 009°25'0 0.0
2017-Oct-07 01:26N 38°41' W 009°25'0 0.0
2017-Oct-07 00:56N 38°41' W 009°25'0 0.0
2017-Oct-07 00:28N 38°41' W 009°25'0 0.0
2017-Oct-06 23:59N 38°41' W 009°25'0 0.0
2017-Oct-06 23:25N 38°41' W 009°25'0 0.0
2017-Oct-06 22:59N 38°41' W 009°25'0 0.0
2017-Oct-06 22:25N 38°41' W 009°25'0 0.0
2017-Oct-06 21:58N 38°41' W 009°25'0 0.0
2017-Oct-06 21:28N 38°41' W 009°25'0 0.0
2017-Oct-06 20:59N 38°41' W 009°25'0 0.0
2017-Oct-06 20:22N 38°41' W 009°25'0 0.0
2017-Oct-06 19:56N 38°41' W 009°25'0 0.0
2017-Oct-06 19:28N 38°41' W 009°25'0 0.0
2017-Oct-06 18:56N 38°41' W 009°25'0 0.0
2017-Oct-06 18:29N 38°41' W 009°25'0 0.0
2017-Oct-06 17:59N 38°41' W 009°25'0 0.0
2017-Oct-06 17:25N 38°41' W 009°25'0 0.0
2017-Oct-06 16:59N 38°41' W 009°25'0 0.0
2017-Oct-06 16:29N 38°41' W 009°25'0 0.0
2017-Oct-06 15:59N 38°41' W 009°25'0 0.0
2017-Oct-06 15:29N 38°41' W 009°25'0 0.0
2017-Oct-06 14:59N 38°41' W 009°25'0 0.0
2017-Oct-06 14:28N 38°41' W 009°25'0 0.0
2017-Oct-06 13:59N 38°41' W 009°25'0 0.0
2017-Oct-06 13:29N 38°41' W 009°25'0 0.0
2017-Oct-06 12:59N 38°41' W 009°25'0 0.0
2017-Oct-06 12:29N 38°41' W 009°25'0 0.0
2017-Oct-06 11:59N 38°41' W 009°25'0 0.0
2017-Oct-06 11:28N 38°41' W 009°25'0 0.0
2017-Oct-06 10:59N 38°41' W 009°25'0 0.0
2017-Oct-06 10:29N 38°41' W 009°25'0 0.0
2017-Oct-06 09:59N 38°41' W 009°25'0 0.0
2017-Oct-06 09:29N 38°41' W 009°25'0 0.0
2017-Oct-06 08:59N 38°41' W 009°25'0 0.0
2017-Oct-06 08:29N 38°41' W 009°25'0 0.0
2017-Oct-06 07:58N 38°41' W 009°25'0 0.0
2017-Oct-06 07:28N 38°41' W 009°25'0 0.0
2017-Oct-06 06:58N 38°41' W 009°25'0 0.0
2017-Oct-06 06:29N 38°41' W 009°25'0 0.0
2017-Oct-06 05:58N 38°41' W 009°25'0 0.0
2017-Oct-06 05:28N 38°41' W 009°25'0 0.0
2017-Oct-06 04:58N 38°41' W 009°25'0 0.0
2017-Oct-06 04:28N 38°41' W 009°25'0 0.0
2017-Oct-06 03:58N 38°41' W 009°25'0 0.0
2017-Oct-06 03:25N 38°41' W 009°25'0 0.0
2017-Oct-06 02:58N 38°41' W 009°25'0 0.0
2017-Oct-06 02:28N 38°41' W 009°25'0 0.0
2017-Oct-06 01:58N 38°41' W 009°25'0 0.0
2017-Oct-06 01:29N 38°41' W 009°25'0 0.0
2017-Oct-06 01:00N 38°41' W 009°25'0 0.0
2017-Oct-06 00:30N 38°41' W 009°25'0 0.0
2017-Oct-06 00:00N 38°41' W 009°25'0 0.0
2017-Oct-05 23:29N 38°41' W 009°25'0 0.0
2017-Oct-05 22:59N 38°41' W 009°25'0 0.0
2017-Oct-05 22:30N 38°41' W 009°25'0 0.0
2017-Oct-05 21:56N 38°41' W 009°25'0 0.0
2017-Oct-05 21:30N 38°41' W 009°25'0 0.0
2017-Oct-05 21:00N 38°41' W 009°25'0 0.0
2017-Oct-05 20:29N 38°41' W 009°25'0 0.0
2017-Oct-05 19:59N 38°41' W 009°25'0 0.0
2017-Oct-05 19:30N 38°41' W 009°25'0 0.0
2017-Oct-05 18:59N 38°41' W 009°25'0 0.0
2017-Oct-05 18:30N 38°41' W 009°25'0 0.0
2017-Oct-05 17:59N 38°41' W 009°25'0 0.0
2017-Oct-05 17:30N 38°41' W 009°25'0 0.0
2017-Oct-05 16:59N 38°41' W 009°25'0 0.0
2017-Oct-05 15:30N 38°41' W 009°25'0 0.0
2017-Oct-05 14:57N 38°41' W 009°25'0 0.0
2017-Oct-05 14:21N 38°41' W 009°25'0 0.0
2017-Oct-05 14:00N 38°41' W 009°25'0 0.0
2017-Oct-05 13:30N 38°41' W 009°25'0 0.0
2017-Oct-05 12:57N 38°41' W 009°25'0 0.0
2017-Oct-05 12:30N 38°41' W 009°25'0 0.0
2017-Oct-05 12:00N 38°41' W 009°25'0 0.0
2017-Oct-05 11:30N 38°41' W 009°25'0 0.0
2017-Oct-05 11:00N 38°41' W 009°25'0 0.0
2017-Oct-05 10:30N 38°41' W 009°25'0 0.0
2017-Oct-05 10:00N 38°41' W 009°25'0 0.0
2017-Oct-05 09:30N 38°41' W 009°25'0 0.0
2017-Oct-05 09:00N 38°41' W 009°25'0 0.0
2017-Oct-05 08:29N 38°41' W 009°25'0 0.0
2017-Oct-05 08:00N 38°41' W 009°25'0 0.0
2017-Oct-05 07:30N 38°41' W 009°25'0 0.0
2017-Oct-05 07:00N 38°41' W 009°25'0 0.0
2017-Oct-05 06:30N 38°41' W 009°25'0 0.0
2017-Oct-05 06:00N 38°41' W 009°25'0 0.0
2017-Oct-05 05:29N 38°41' W 009°25'0 0.0
2017-Oct-05 05:00N 38°41' W 009°25'0 0.0
2017-Oct-05 04:30N 38°41' W 009°25'0 0.0
2017-Oct-05 04:00N 38°41' W 009°25'0 0.0
2017-Oct-05 03:30N 38°41' W 009°25'0 0.0
2017-Oct-05 02:59N 38°41' W 009°25'0 0.0
2017-Oct-05 02:30N 38°41' W 009°25'0 0.0
2017-Oct-05 02:00N 38°41' W 009°25'0 0.0
2017-Oct-05 01:29N 38°41' W 009°25'0 0.0
2017-Oct-05 01:00N 38°41' W 009°25'0 0.0
2017-Oct-05 00:29N 38°41' W 009°25'0 0.0
2017-Oct-05 00:00N 38°41' W 009°25'0 0.0
2017-Oct-04 23:30N 38°41' W 009°25'0 0.0
2017-Oct-04 22:54N 38°41' W 009°25'0 0.0
2017-Oct-04 22:30N 38°41' W 009°25'0 0.0
2017-Oct-04 22:00N 38°41' W 009°25'0 0.0
2017-Oct-04 21:24N 38°41' W 009°25'0 0.0
2017-Oct-04 21:00N 38°41' W 009°25'0 0.0
2017-Oct-04 20:30N 38°41' W 009°25'0 0.0
2017-Oct-04 19:59N 38°41' W 009°25'0 0.0
2017-Oct-04 19:29N 38°41' W 009°25'0 0.0
2017-Oct-04 18:51N 38°41' W 009°25'0 0.0
2017-Oct-04 18:30N 38°41' W 009°25'0 0.0
2017-Oct-04 18:00N 38°41' W 009°25'0 0.0
2017-Oct-04 17:30N 38°41' W 009°25'0 0.0
2017-Oct-04 16:57N 38°41' W 009°25'0 0.0
2017-Oct-04 16:24N 38°41' W 009°25'0 0.0
2017-Oct-04 15:57N 38°41' W 009°25'0 0.0
2017-Oct-04 15:24N 38°41' W 009°25'0 0.0
2017-Oct-04 15:00N 38°41' W 009°25'0 0.0
2017-Oct-04 14:30N 38°41' W 009°25'0 0.0
2017-Oct-04 14:00N 38°41' W 009°25'0 0.0
2017-Oct-04 13:21N 38°41' W 009°25'0 0.0
2017-Oct-04 13:00N 38°41' W 009°25'0 0.0
2017-Oct-04 12:30N 38°41' W 009°25'0 0.0
2017-Oct-04 12:00N 38°41' W 009°25'0 0.0
2017-Oct-04 11:30N 38°41' W 009°25'0 0.0
2017-Oct-04 11:00N 38°41' W 009°25'0 0.0
2017-Oct-04 10:30N 38°41' W 009°25'0 0.0
2017-Oct-04 09:57N 38°41' W 009°25'0 0.0
2017-Oct-04 09:30N 38°41' W 009°25'0 0.0
2017-Oct-04 09:00N 38°41' W 009°25'0 0.0
2017-Oct-04 08:30N 38°41' W 009°25'0 0.0
2017-Oct-04 07:54N 38°41' W 009°25'0 0.0
2017-Oct-04 07:30N 38°41' W 009°25'0 0.0
2017-Oct-04 07:00N 38°41' W 009°25'0 0.0
2017-Oct-04 06:27N 38°41' W 009°25'0 0.0
2017-Oct-04 06:00N 38°41' W 009°25'0 0.0
2017-Oct-04 05:30N 38°41' W 009°25'0 0.0
2017-Oct-04 05:00N 38°41' W 009°25'0 0.0
2017-Oct-04 04:24N 38°41' W 009°25'0 0.0
2017-Oct-04 04:00N 38°41' W 009°25'0 0.0
2017-Oct-04 03:30N 38°41' W 009°25'0 0.0
2017-Oct-04 02:54N 38°41' W 009°25'0 0.0
2017-Oct-04 02:30N 38°41' W 009°25'0 0.0
2017-Oct-04 01:57N 38°41' W 009°25'0 0.0
2017-Oct-04 01:30N 38°41' W 009°25'0 0.0
2017-Oct-04 00:54N 38°41' W 009°25'0 0.0
2017-Oct-04 00:30N 38°41' W 009°25'0 0.0
2017-Oct-03 23:57N 38°41' W 009°25'0 0.0
2017-Oct-03 23:30N 38°41' W 009°25'0 0.0
2017-Oct-03 23:00N 38°41' W 009°25'0 0.0
2017-Oct-03 22:30N 38°41' W 009°25'0 0.0
2017-Oct-03 22:00N 38°41' W 009°25'0 0.0
2017-Oct-03 21:30N 38°41' W 009°25'0 0.0
2017-Oct-03 20:54N 38°41' W 009°25'0 0.0
2017-Oct-03 20:30N 38°41' W 009°25'0 0.0
2017-Oct-03 20:00N 38°41' W 009°25'0 0.0
2017-Oct-03 19:30N 38°41' W 009°25'0 0.0
2017-Oct-03 19:00N 38°41' W 009°25'0 0.0
2017-Oct-03 18:30N 38°41' W 009°25'0 0.0
2017-Oct-03 17:54N 38°41' W 009°25'0 0.0
2017-Oct-03 17:27N 38°41' W 009°25'0 0.0
2017-Oct-03 17:00N 38°41' W 009°25'0 0.0
2017-Oct-03 16:30N 38°41' W 009°25'0 0.0
2017-Oct-03 16:00N 38°41' W 009°25'0 0.0
2017-Oct-03 15:30N 38°41' W 009°25'0 0.0
2017-Oct-03 15:01N 38°41' W 009°25'0 0.0
2017-Oct-03 14:00N 38°41' W 009°25'0 0.0
2017-Oct-03 13:30N 38°41' W 009°25'0 0.0
2017-Oct-03 13:00N 38°41' W 009°25'0 0.0
2017-Oct-03 12:30N 38°41' W 009°25'0 0.0
2017-Oct-03 12:00N 38°41' W 009°25'0 0.0
2017-Oct-03 11:30N 38°41' W 009°25'0 0.0
2017-Oct-03 11:00N 38°41' W 009°25'0 0.0
2017-Oct-03 10:27N 38°41' W 009°25'0 0.0
2017-Oct-03 09:57N 38°41' W 009°25'0 0.0
2017-Oct-03 09:30N 38°41' W 009°25'0 0.0
2017-Oct-03 09:00N 38°41' W 009°25'0 0.0
2017-Oct-03 08:24N 38°41' W 009°25'0 0.0
2017-Oct-03 08:00N 38°41' W 009°25'0 0.0
2017-Oct-03 07:30N 38°41' W 009°25'0 0.0
2017-Oct-03 06:57N 38°41' W 009°25'0 0.0
2017-Oct-03 06:30N 38°41' W 009°25'0 0.0
2017-Oct-03 05:57N 38°41' W 009°25'0 0.0
2017-Oct-03 05:30N 38°41' W 009°25'0 0.0
2017-Oct-03 05:00N 38°41' W 009°25'0 0.0
2017-Oct-03 04:30N 38°41' W 009°25'0 0.0
2017-Oct-03 04:00N 38°41' W 009°25'0 0.0
2017-Oct-03 03:30N 38°41' W 009°25'0 0.0
2017-Oct-03 03:00N 38°41' W 009°25'0 0.0
2017-Oct-03 02:30N 38°41' W 009°25'0 0.0
2017-Oct-03 01:57N 38°41' W 009°25'0 0.0
2017-Oct-03 01:30N 38°41' W 009°25'0 0.0
2017-Oct-03 01:00N 38°41' W 009°25'0 0.0
2017-Oct-03 00:30N 38°41' W 009°25'0 0.0
2017-Oct-03 00:00N 38°41' W 009°25'0 0.0
2017-Oct-02 23:21N 38°41' W 009°25'0 0.0
2017-Oct-02 23:00N 38°41' W 009°25'0 0.0
2017-Oct-02 22:30N 38°41' W 009°25'0 0.0
2017-Oct-02 22:00N 38°41' W 009°25'0 0.0
2017-Oct-02 21:27N 38°41' W 009°25'0 0.0
2017-Oct-02 21:00N 38°41' W 009°25'0 0.0
2017-Oct-02 20:30N 38°41' W 009°25'0 0.0
2017-Oct-02 19:54N 38°41' W 009°25'0 0.0
2017-Oct-02 19:30N 38°41' W 009°25'0 0.0
2017-Oct-02 18:57N 38°41' W 009°25'0 0.0
2017-Oct-02 18:30N 38°41' W 009°25'0 0.0
2017-Oct-02 17:51N 38°41' W 009°25'0 0.0
2017-Oct-02 17:27N 38°41' W 009°25'0 0.0
2017-Oct-02 16:57N 38°41' W 009°25'0 0.0
2017-Oct-02 16:30N 38°41' W 009°25'0 0.0
2017-Oct-02 16:00N 38°41' W 009°25'0 0.0
2017-Oct-02 15:30N 38°41' W 009°25'0 0.0
2017-Oct-02 15:00N 38°41' W 009°25'0 0.0
2017-Oct-02 14:30N 38°41' W 009°25'0 0.0
2017-Oct-02 14:00N 38°41' W 009°25'0 0.0
2017-Oct-02 13:24N 38°41' W 009°25'0 0.0
2017-Oct-02 13:00N 38°41' W 009°25'0 0.0
2017-Oct-02 12:24N 38°41' W 009°25'0 0.0
2017-Oct-02 12:00N 38°41' W 009°25'0 0.0
2017-Oct-02 11:30N 38°41' W 009°25'0 0.0
2017-Oct-02 10:57N 38°41' W 009°25'0 0.0
2017-Oct-02 10:30N 38°41' W 009°25'0 0.0
2017-Oct-02 10:00N 38°41' W 009°25'0 0.0
2017-Oct-02 09:30N 38°41' W 009°25'0 0.0
2017-Oct-02 09:00N 38°41' W 009°25'0 0.0
2017-Oct-02 08:30N 38°41' W 009°25'0 0.0
2017-Oct-02 07:54N 38°41' W 009°25'0 0.0
2017-Oct-02 07:30N 38°41' W 009°25'0 0.0
2017-Oct-02 07:00N 38°41' W 009°25'0 0.0
2017-Oct-02 06:30N 38°41' W 009°25'0 0.0
2017-Oct-02 06:00N 38°41' W 009°25'0 0.0
2017-Oct-02 05:30N 38°41' W 009°25'0 0.0
2017-Oct-02 05:00N 38°41' W 009°25'0 0.0
2017-Oct-02 04:27N 38°41' W 009°25'0 0.0
2017-Oct-02 04:00N 38°41' W 009°25'0 0.0
2017-Oct-02 03:30N 38°41' W 009°25'0 0.0
2017-Oct-02 03:00N 38°41' W 009°25'0 0.0
2017-Oct-02 02:30N 38°41' W 009°25'0 0.0
2017-Oct-02 02:00N 38°41' W 009°25'0 0.0
2017-Oct-02 01:27N 38°41' W 009°25'0 0.0
2017-Oct-02 01:00N 38°41' W 009°25'0 0.0
2017-Oct-02 00:30N 38°41' W 009°25'0 0.0
2017-Oct-02 00:00N 38°41' W 009°25'0 0.0
2017-Oct-01 23:30N 38°41' W 009°25'0 0.0
2017-Oct-01 22:57N 38°41' W 009°25'0 0.0
2017-Oct-01 22:30N 38°41' W 009°25'0 0.0
2017-Oct-01 21:48N 38°41' W 009°25'0 0.0
2017-Oct-01 21:30N 38°41' W 009°25'0 0.0
2017-Oct-01 20:54N 38°41' W 009°25'0 0.0
2017-Oct-01 20:30N 38°41' W 009°25'0 0.0
2017-Oct-01 20:00N 38°41' W 009°25'0 0.0
2017-Oct-01 19:21N 38°41' W 009°25'0 0.0
2017-Oct-01 19:00N 38°41' W 009°25'0 0.0
2017-Oct-01 18:30N 38°41' W 009°25'0 0.0
2017-Oct-01 17:57N 38°41' W 009°25'0 0.0
2017-Oct-01 17:30N 38°41' W 009°25'0 0.0
2017-Oct-01 17:00N 38°41' W 009°25'0 0.0
2017-Oct-01 16:30N 38°41' W 009°25'0 0.0
2017-Oct-01 16:00N 38°41' W 009°25'0 0.0
2017-Oct-01 15:30N 38°41' W 009°25'0 0.0
2017-Oct-01 15:00N 38°41' W 009°25'0 0.0
2017-Oct-01 14:30N 38°41' W 009°25'0 0.0
2017-Oct-01 14:00N 38°41' W 009°25'0 0.0
2017-Oct-01 13:24N 38°41' W 009°25'0 0.0
2017-Oct-01 13:00N 38°41' W 009°25'0 0.0
2017-Oct-01 12:30N 38°41' W 009°25'0 0.0
2017-Oct-01 12:00N 38°41' W 009°25'0 0.0
2017-Oct-01 11:30N 38°41' W 009°25'0 0.0
2017-Oct-01 11:00N 38°41' W 009°25'0 0.0
2017-Oct-01 10:30N 38°41' W 009°25'0 0.0
2017-Oct-01 10:00N 38°41' W 009°25'0 0.0
2017-Oct-01 09:30N 38°41' W 009°25'0 0.0
2017-Oct-01 09:00N 38°41' W 009°25'0 0.0
2017-Oct-01 08:30N 38°41' W 009°25'0 0.0
2017-Oct-01 07:57N 38°41' W 009°25'0 0.0
2017-Oct-01 07:27N 38°41' W 009°25'0 0.0
2017-Oct-01 07:00N 38°41' W 009°25'0 0.0
2017-Oct-01 06:27N 38°41' W 009°25'0 0.0
2017-Oct-01 06:00N 38°41' W 009°25'0 0.0
2017-Oct-01 05:30N 38°41' W 009°25'0 0.0
2017-Oct-01 05:00N 38°41' W 009°25'0 0.0
2017-Oct-01 04:30N 38°41' W 009°25'0 0.0
2017-Oct-01 04:00N 38°41' W 009°25'0 0.0
2017-Oct-01 03:30N 38°41' W 009°25'0 0.0
2017-Oct-01 02:54N 38°41' W 009°25'  
Track history (hours):
 
Tides and Currents Weather Stations Pressure Air Temp Water Temp Dewpoint Dewpoint Depression Visibility Wind Speed Wind Dir Waves Ship Positions

Lip On The Sea II

Last reported at 2017-Oct-11 00:00 UTC. Time now 2017-Dec-14 13:23 UTC.
Position N 35°45' W 013°17'.
Warning: this ship's position is months out of date.

Length 15 m.

Type: Sailing vessel. MMSI: 227813890.

Date/timePositionNaut miles runAvg speedWind from/ knotsBaromVisibWave heightAir tempDewpointWater temp
2017-Oct-11 00:00N 35°45' W 013°17'7 6.2
2017-Oct-10 22:53N 35°49' W 013°10'3 6.4
2017-Oct-10 22:29N 35°51' W 013°08'6 6.7
2017-Oct-10 21:37N 35°54' W 013°02'1 6.7
2017-Oct-10 21:30N 35°55' W 013°01'5 6.6
2017-Oct-10 20:44N 35°58' W 012°57'2 6.3
2017-Oct-10 20:21N 35°60' W 012°54'4 6.5
2017-Oct-10 19:43N 36°02' W 012°51'2 6.4
2017-Oct-10 19:28N 36°03' W 012°49'3 6.5
2017-Oct-10 18:59N 36°05' W 012°46'3 6.5
2017-Oct-10 18:30N 36°07' W 012°43'3 6.5
2017-Oct-10 18:00N 36°09' W 012°40'29 7.1
2017-Oct-10 13:55N 36°29' W 012°14'6 6.7
2017-Oct-10 12:58N 36°34' W 012°08'3 6.8
2017-Oct-10 12:30N 36°36' W 012°06'4 7.9
2017-Oct-10 12:00N 36°39' W 012°03'3 6.1
2017-Oct-10 11:30N 36°42' W 012°00'3 5.0
2017-Oct-10 11:00N 36°43' W 011°58'3 7.0
2017-Oct-10 10:30N 36°46' W 011°55'4 7.1
2017-Oct-10 10:00N 36°49' W 011°52'4 7.1
2017-Oct-10 09:30N 36°51' W 011°49'4 7.2
2017-Oct-10 09:00N 36°54' W 011°46'8 7.0
2017-Oct-10 07:50N 36°60' W 011°39'3 7.5
2017-Oct-10 07:29N 37°01' W 011°36'4 8.0
2017-Oct-10 07:00N 37°04' W 011°33'4 7.8
2017-Oct-10 06:27N 37°07' W 011°29'10 7.5
2017-Oct-10 05:07N 37°14' W 011°20'2 7.6
2017-Oct-10 04:55N 37°15' W 011°19'3 6.8
2017-Oct-10 04:30N 37°17' W 011°16'3 6.2
2017-Oct-10 04:00N 37°19' W 011°14'3 6.2
2017-Oct-10 03:30N 37°22' W 011°11'3 6.2
2017-Oct-10 03:00N 37°24' W 011°08'3 6.5
2017-Oct-10 02:30N 37°26' W 011°05'3 6.7
2017-Oct-10 02:00N 37°29' W 011°02'3 6.5
2017-Oct-10 01:30N 37°31' W 010°60'3 6.5
2017-Oct-10 01:00N 37°34' W 010°57'3 6.6
2017-Oct-10 00:30N 37°36' W 010°54'3 6.4
2017-Oct-10 00:00N 37°38' W 010°51'3 6.9
2017-Oct-09 23:30N 37°40' W 010°48'4 7.2
2017-Oct-09 23:00N 37°43' W 010°44'4 7.4
2017-Oct-09 22:30N 37°45' W 010°41'4 7.3
2017-Oct-09 22:00N 37°47' W 010°37'4 7.1
2017-Oct-09 21:30N 37°50' W 010°34'3 7.0
2017-Oct-09 21:00N 37°52' W 010°31'4 7.0
2017-Oct-09 20:30N 37°55' W 010°28'3 6.5
2017-Oct-09 20:00N 37°58' W 010°26'3 6.4
2017-Oct-09 19:30N 38°00' W 010°23'3 6.1
2017-Oct-09 19:00N 38°02' W 010°20'3 6.9
2017-Oct-09 18:30N 38°05' W 010°17'3 6.2
2017-Oct-09 18:00N 38°07' W 010°14'3 6.4
2017-Oct-09 17:30N 38°09' W 010°11'3 6.9
2017-Oct-09 17:00N 38°11' W 010°08'4 7.1
2017-Oct-09 16:30N 38°13' W 010°05'3 6.6
2017-Oct-09 16:00N 38°16' W 010°01'4 7.2
2017-Oct-09 15:30N 38°18' W 009°58'4 7.0
2017-Oct-09 15:00N 38°20' W 009°55'4 7.2
2017-Oct-09 14:30N 38°23' W 009°51'3 6.9
2017-Oct-09 14:00N 38°25' W 009°48'3 6.7
2017-Oct-09 13:30N 38°27' W 009°45'3 6.7
2017-Oct-09 13:00N 38°29' W 009°41'4 7.1
2017-Oct-09 12:30N 38°32' W 009°38'4 7.8
2017-Oct-09 12:00N 38°34' W 009°34'4 7.0
2017-Oct-09 11:30N 38°37' W 009°31'3 6.5
2017-Oct-09 11:00N 38°39' W 009°28'3 5.6
2017-Oct-09 10:30N 38°41' W 009°25'1 1.7
2017-Oct-09 09:59N 38°42' W 009°25'0 0.5
2017-Oct-09 09:28N 38°41' W 009°25'0 0.0
2017-Oct-09 08:59N 38°41' W 009°25'0 0.0
2017-Oct-09 08:28N 38°41' W 009°25'0 0.0
2017-Oct-09 07:59N 38°41' W 009°25'0 0.0
2017-Oct-09 07:28N 38°41' W 009°25'0 0.0
2017-Oct-09 06:58N 38°41' W 009°25'0 0.0
2017-Oct-09 06:28N 38°41' W 009°25'0 0.0
2017-Oct-09 05:58N 38°41' W 009°25'0 0.0
2017-Oct-09 05:25N 38°41' W 009°25'0 0.0
2017-Oct-09 04:58N 38°41' W 009°25'0 0.0
2017-Oct-09 04:28N 38°41' W 009°25'0 0.0
2017-Oct-09 03:58N 38°41' W 009°25'0 0.0
2017-Oct-09 03:28N 38°41' W 009°25'0 0.0
2017-Oct-09 02:58N 38°41' W 009°25'0 0.0
2017-Oct-09 02:28N 38°41' W 009°25'0 0.0
2017-Oct-09 01:59N 38°41' W 009°25'0 0.0
2017-Oct-09 01:28N 38°41' W 009°25'0 0.0
2017-Oct-09 00:58N 38°41' W 009°25'0 0.0
2017-Oct-09 00:28N 38°41' W 009°25'0 0.0
2017-Oct-08 23:58N 38°41' W 009°25'0 0.0
2017-Oct-08 23:28N 38°41' W 009°25'0 0.0
2017-Oct-08 22:58N 38°41' W 009°25'0 0.0
2017-Oct-08 22:28N 38°41' W 009°25'0 0.0
2017-Oct-08 21:58N 38°41' W 009°25'0 0.0
2017-Oct-08 21:28N 38°41' W 009°25'0 0.0
2017-Oct-08 20:58N 38°41' W 009°25'0 0.0
2017-Oct-08 20:28N 38°41' W 009°25'0 0.0
2017-Oct-08 19:58N 38°41' W 009°25'0 0.0
2017-Oct-08 19:28N 38°41' W 009°25'0 0.0
2017-Oct-08 18:58N 38°41' W 009°25'0 0.0
2017-Oct-08 18:28N 38°41' W 009°25'0 0.0
2017-Oct-08 17:56N 38°41' W 009°25'0 0.0
2017-Oct-08 17:28N 38°41' W 009°25'0 0.0
2017-Oct-08 16:58N 38°41' W 009°25'0 0.0
2017-Oct-08 16:28N 38°41' W 009°25'0 0.0
2017-Oct-08 15:55N 38°41' W 009°25'0 0.0
2017-Oct-08 15:28N 38°41' W 009°25'0 0.0
2017-Oct-08 14:59N 38°41' W 009°25'0 0.0
2017-Oct-08 14:25N 38°41' W 009°25'0 0.0
2017-Oct-08 13:58N 38°41' W 009°25'0 0.0
2017-Oct-08 13:25N 38°41' W 009°25'0 0.0
2017-Oct-08 12:59N 38°41' W 009°25'0 0.0
2017-Oct-08 12:25N 38°41' W 009°25'0 0.0
2017-Oct-08 11:58N 38°41' W 009°25'0 0.0
2017-Oct-08 11:25N 38°41' W 009°25'0 0.0
2017-Oct-08 10:59N 38°41' W 009°25'0 0.0
2017-Oct-08 10:28N 38°41' W 009°25'0 0.0
2017-Oct-08 09:55N 38°41' W 009°25'0 0.0
2017-Oct-08 09:25N 38°41' W 009°25'0 0.0
2017-Oct-08 08:58N 38°41' W 009°25'0 0.0
2017-Oct-08 08:28N 38°41' W 009°25'0 0.0
2017-Oct-08 07:58N 38°41' W 009°25'0 0.0
2017-Oct-08 07:29N 38°41' W 009°25'0 0.0
2017-Oct-08 06:58N 38°41' W 009°25'0 0.0
2017-Oct-08 06:28N 38°41' W 009°25'0 0.0
2017-Oct-08 05:58N 38°41' W 009°25'0 0.0
2017-Oct-08 05:28N 38°41' W 009°25'0 0.0
2017-Oct-08 04:52N 38°41' W 009°25'0 0.0
2017-Oct-08 04:25N 38°41' W 009°25'0 0.0
2017-Oct-08 03:58N 38°41' W 009°25'0 0.0
2017-Oct-08 03:28N 38°41' W 009°25'0 0.0
2017-Oct-08 02:58N 38°41' W 009°25'0 0.0
2017-Oct-08 02:28N 38°41' W 009°25'0 0.0
2017-Oct-08 01:58N 38°41' W 009°25'0 0.0
2017-Oct-08 01:25N 38°41' W 009°25'0 0.0
2017-Oct-08 00:58N 38°41' W 009°25'0 0.0
2017-Oct-08 00:25N 38°41' W 009°25'0 0.0
2017-Oct-07 23:55N 38°41' W 009°25'0 0.0
2017-Oct-07 23:29N 38°41' W 009°25'0 0.0
2017-Oct-07 22:58N 38°41' W 009°25'0 0.0
2017-Oct-07 22:25N 38°41' W 009°25'0 0.0
2017-Oct-07 21:58N 38°41' W 009°25'0 0.0
2017-Oct-07 21:25N 38°41' W 009°25'0 0.0
2017-Oct-07 20:58N 38°41' W 009°25'0 0.0
2017-Oct-07 20:25N 38°41' W 009°25'0 0.0
2017-Oct-07 19:59N 38°41' W 009°25'0 0.0
2017-Oct-07 19:28N 38°41' W 009°25'0 0.0
2017-Oct-07 18:58N 38°41' W 009°25'0 0.0
2017-Oct-07 18:22N 38°41' W 009°25'3 6.0
2017-Oct-07 17:53N 38°41' W 009°21'3 8.5
2017-Oct-07 17:30N 38°41' W 009°17'5 9.1
2017-Oct-07 16:59N 38°42' W 009°11'3 6.1
2017-Oct-07 16:30N 38°42' W 009°07'2 0.8
2017-Oct-07 14:32N 38°41' W 009°09'0 0.1
2017-Oct-07 14:07N 38°41' W 009°09'1 5.3
2017-Oct-07 13:58N 38°41' W 009°10'5 8.7
2017-Oct-07 13:23N 38°41' W 009°17'4 8.6
2017-Oct-07 12:53N 38°41' W 009°22'2 5.5
2017-Oct-07 12:27N 38°41' W 009°25'0 0.0
2017-Oct-07 12:00N 38°41' W 009°25'0 0.0
2017-Oct-07 11:27N 38°41' W 009°25'0 0.0
2017-Oct-07 11:00N 38°41' W 009°25'0 0.0
2017-Oct-07 10:30N 38°41' W 009°25'0 0.0
2017-Oct-07 10:00N 38°41' W 009°25'0 0.0
2017-Oct-07 09:27N 38°41' W 009°25'0 0.0
2017-Oct-07 09:00N 38°41' W 009°25'0 0.0
2017-Oct-07 08:30N 38°41' W 009°25'0 0.0
2017-Oct-07 07:57N 38°41' W 009°25'0 0.0
2017-Oct-07 07:30N 38°41' W 009°25'0 0.0
2017-Oct-07 06:57N 38°41' W 009°25'0 0.0
2017-Oct-07 06:24N 38°41' W 009°25'0 0.0
2017-Oct-07 06:00N 38°41' W 009°25'0 0.0
2017-Oct-07 05:28N 38°41' W 009°25'0 0.0
2017-Oct-07 04:55N 38°41' W 009°25'0 0.0
2017-Oct-07 04:17N 38°41' W 009°25'0 0.0
2017-Oct-07 03:53N 38°41' W 009°25'0 0.0
2017-Oct-07 03:29N 38°41' W 009°25'0 0.0
2017-Oct-07 02:59N 38°41' W 009°25'0 0.0
2017-Oct-07 02:29N 38°41' W 009°25'0 0.0
2017-Oct-07 01:59N 38°41' W 009°25'0 0.0
2017-Oct-07 01:26N 38°41' W 009°25'0 0.0
2017-Oct-07 00:56N 38°41' W 009°25'0 0.0
2017-Oct-07 00:28N 38°41' W 009°25'0 0.0
2017-Oct-06 23:59N 38°41' W 009°25'0 0.0
2017-Oct-06 23:25N 38°41' W 009°25'0 0.0
2017-Oct-06 22:59N 38°41' W 009°25'0 0.0
2017-Oct-06 22:25N 38°41' W 009°25'0 0.0
2017-Oct-06 21:58N 38°41' W 009°25'0 0.0
2017-Oct-06 21:28N 38°41' W 009°25'0 0.0
2017-Oct-06 20:59N 38°41' W 009°25'0 0.0
2017-Oct-06 20:22N 38°41' W 009°25'0 0.0
2017-Oct-06 19:56N 38°41' W 009°25'0 0.0
2017-Oct-06 19:28N 38°41' W 009°25'0 0.0
2017-Oct-06 18:56N 38°41' W 009°25'0 0.0
2017-Oct-06 18:29N 38°41' W 009°25'0 0.0
2017-Oct-06 17:59N 38°41' W 009°25'0 0.0
2017-Oct-06 17:25N 38°41' W 009°25'0 0.0
2017-Oct-06 16:59N 38°41' W 009°25'0 0.0
2017-Oct-06 16:29N 38°41' W 009°25'0 0.0
2017-Oct-06 15:59N 38°41' W 009°25'0 0.0
2017-Oct-06 15:29N 38°41' W 009°25'0 0.0
2017-Oct-06 14:59N 38°41' W 009°25'0 0.0
2017-Oct-06 14:28N 38°41' W 009°25'0 0.0
2017-Oct-06 13:59N 38°41' W 009°25'0 0.0
2017-Oct-06 13:29N 38°41' W 009°25'0 0.0
2017-Oct-06 12:59N 38°41' W 009°25'0 0.0
2017-Oct-06 12:29N 38°41' W 009°25'0 0.0
2017-Oct-06 11:59N 38°41' W 009°25'0 0.0
2017-Oct-06 11:28N 38°41' W 009°25'0 0.0
2017-Oct-06 10:59N 38°41' W 009°25'0 0.0
2017-Oct-06 10:29N 38°41' W 009°25'0 0.0
2017-Oct-06 09:59N 38°41' W 009°25'0 0.0
2017-Oct-06 09:29N 38°41' W 009°25'0 0.0
2017-Oct-06 08:59N 38°41' W 009°25'0 0.0
2017-Oct-06 08:29N 38°41' W 009°25'0 0.0
2017-Oct-06 07:58N 38°41' W 009°25'0 0.0
2017-Oct-06 07:28N 38°41' W 009°25'0 0.0
2017-Oct-06 06:58N 38°41' W 009°25'0 0.0
2017-Oct-06 06:29N 38°41' W 009°25'0 0.0
2017-Oct-06 05:58N 38°41' W 009°25'0 0.0
2017-Oct-06 05:28N 38°41' W 009°25'0 0.0
2017-Oct-06 04:58N 38°41' W 009°25'0 0.0
2017-Oct-06 04:28N 38°41' W 009°25'0 0.0
2017-Oct-06 03:58N 38°41' W 009°25'0 0.0
2017-Oct-06 03:25N 38°41' W 009°25'0 0.0
2017-Oct-06 02:58N 38°41' W 009°25'0 0.0
2017-Oct-06 02:28N 38°41' W 009°25'0 0.0
2017-Oct-06 01:58N 38°41' W 009°25'0 0.0
2017-Oct-06 01:29N 38°41' W 009°25'0 0.0
2017-Oct-06 01:00N 38°41' W 009°25'0 0.0
2017-Oct-06 00:30N 38°41' W 009°25'0 0.0
2017-Oct-06 00:00N 38°41' W 009°25'0 0.0
2017-Oct-05 23:29N 38°41' W 009°25'0 0.0
2017-Oct-05 22:59N 38°41' W 009°25'0 0.0
2017-Oct-05 22:30N 38°41' W 009°25'0 0.0
2017-Oct-05 21:56N 38°41' W 009°25'0 0.0
2017-Oct-05 21:30N 38°41' W 009°25'0 0.0
2017-Oct-05 21:00N 38°41' W 009°25'0 0.0
2017-Oct-05 20:29N 38°41' W 009°25'0 0.0
2017-Oct-05 19:59N 38°41' W 009°25'0 0.0
2017-Oct-05 19:30N 38°41' W 009°25'0 0.0
2017-Oct-05 18:59N 38°41' W 009°25'0 0.0
2017-Oct-05 18:30N 38°41' W 009°25'0 0.0
2017-Oct-05 17:59N 38°41' W 009°25'0 0.0
2017-Oct-05 17:30N 38°41' W 009°25'0 0.0
2017-Oct-05 16:59N 38°41' W 009°25'0 0.0
2017-Oct-05 15:30N 38°41' W 009°25'0 0.0
2017-Oct-05 14:57N 38°41' W 009°25'0 0.0
2017-Oct-05 14:21N 38°41' W 009°25'0 0.0
2017-Oct-05 14:00N 38°41' W 009°25'0 0.0
2017-Oct-05 13:30N 38°41' W 009°25'0 0.0
2017-Oct-05 12:57N 38°41' W 009°25'0 0.0
2017-Oct-05 12:30N 38°41' W 009°25'0 0.0
2017-Oct-05 12:00N 38°41' W 009°25'0 0.0
2017-Oct-05 11:30N 38°41' W 009°25'0 0.0
2017-Oct-05 11:00N 38°41' W 009°25'0 0.0
2017-Oct-05 10:30N 38°41' W 009°25'0 0.0
2017-Oct-05 10:00N 38°41' W 009°25'0 0.0
2017-Oct-05 09:30N 38°41' W 009°25'0 0.0
2017-Oct-05 09:00N 38°41' W 009°25'0 0.0
2017-Oct-05 08:29N 38°41' W 009°25'0 0.0
2017-Oct-05 08:00N 38°41' W 009°25'0 0.0
2017-Oct-05 07:30N 38°41' W 009°25'0 0.0
2017-Oct-05 07:00N 38°41' W 009°25'0 0.0
2017-Oct-05 06:30N 38°41' W 009°25'0 0.0
2017-Oct-05 06:00N 38°41' W 009°25'0 0.0
2017-Oct-05 05:29N 38°41' W 009°25'0 0.0
2017-Oct-05 05:00N 38°41' W 009°25'0 0.0
2017-Oct-05 04:30N 38°41' W 009°25'0 0.0
2017-Oct-05 04:00N 38°41' W 009°25'0 0.0
2017-Oct-05 03:30N 38°41' W 009°25'0 0.0
2017-Oct-05 02:59N 38°41' W 009°25'0 0.0
2017-Oct-05 02:30N 38°41' W 009°25'0 0.0
2017-Oct-05 02:00N 38°41' W 009°25'0 0.0
2017-Oct-05 01:29N 38°41' W 009°25'0 0.0
2017-Oct-05 01:00N 38°41' W 009°25'0 0.0
2017-Oct-05 00:29N 38°41' W 009°25'0 0.0
2017-Oct-05 00:00N 38°41' W 009°25'0 0.0
2017-Oct-04 23:30N 38°41' W 009°25'0 0.0
2017-Oct-04 22:54N 38°41' W 009°25'0 0.0
2017-Oct-04 22:30N 38°41' W 009°25'0 0.0
2017-Oct-04 22:00N 38°41' W 009°25'0 0.0
2017-Oct-04 21:24N 38°41' W 009°25'0 0.0
2017-Oct-04 21:00N 38°41' W 009°25'0 0.0
2017-Oct-04 20:30N 38°41' W 009°25'0 0.0
2017-Oct-04 19:59N 38°41' W 009°25'0 0.0
2017-Oct-04 19:29N 38°41' W 009°25'0 0.0
2017-Oct-04 18:51N 38°41' W 009°25'0 0.0
2017-Oct-04 18:30N 38°41' W 009°25'0 0.0
2017-Oct-04 18:00N 38°41' W 009°25'0 0.0
2017-Oct-04 17:30N 38°41' W 009°25'0 0.0
2017-Oct-04 16:57N 38°41' W 009°25'0 0.0
2017-Oct-04 16:24N 38°41' W 009°25'0 0.0
2017-Oct-04 15:57N 38°41' W 009°25'0 0.0
2017-Oct-04 15:24N 38°41' W 009°25'0 0.0
2017-Oct-04 15:00N 38°41' W 009°25'0 0.0
2017-Oct-04 14:30N 38°41' W 009°25'0 0.0
2017-Oct-04 14:00N 38°41' W 009°25'0 0.0
2017-Oct-04 13:21N 38°41' W 009°25'0 0.0
2017-Oct-04 13:00N 38°41' W 009°25'0 0.0
2017-Oct-04 12:30N 38°41' W 009°25'0 0.0
2017-Oct-04 12:00N 38°41' W 009°25'0 0.0
2017-Oct-04 11:30N 38°41' W 009°25'0 0.0
2017-Oct-04 11:00N 38°41' W 009°25'0 0.0
2017-Oct-04 10:30N 38°41' W 009°25'0 0.0
2017-Oct-04 09:57N 38°41' W 009°25'0 0.0
2017-Oct-04 09:30N 38°41' W 009°25'0 0.0
2017-Oct-04 09:00N 38°41' W 009°25'0 0.0
2017-Oct-04 08:30N 38°41' W 009°25'0 0.0
2017-Oct-04 07:54N 38°41' W 009°25'0 0.0
2017-Oct-04 07:30N 38°41' W 009°25'0 0.0
2017-Oct-04 07:00N 38°41' W 009°25'0 0.0
2017-Oct-04 06:27N 38°41' W 009°25'0 0.0
2017-Oct-04 06:00N 38°41' W 009°25'0 0.0
2017-Oct-04 05:30N 38°41' W 009°25'0 0.0
2017-Oct-04 05:00N 38°41' W 009°25'0 0.0
2017-Oct-04 04:24N 38°41' W 009°25'0 0.0
2017-Oct-04 04:00N 38°41' W 009°25'0 0.0
2017-Oct-04 03:30N 38°41' W 009°25'0 0.0
2017-Oct-04 02:54N 38°41' W 009°25'0 0.0
2017-Oct-04 02:30N 38°41' W 009°25'0 0.0
2017-Oct-04 01:57N 38°41' W 009°25'0 0.0
2017-Oct-04 01:30N 38°41' W 009°25'0 0.0
2017-Oct-04 00:54N 38°41' W 009°25'0 0.0
2017-Oct-04 00:30N 38°41' W 009°25'0 0.0
2017-Oct-03 23:57N 38°41' W 009°25'0 0.0
2017-Oct-03 23:30N 38°41' W 009°25'0 0.0
2017-Oct-03 23:00N 38°41' W 009°25'0 0.0
2017-Oct-03 22:30N 38°41' W 009°25'0 0.0
2017-Oct-03 22:00N 38°41' W 009°25'0 0.0
2017-Oct-03 21:30N 38°41' W 009°25'0 0.0
2017-Oct-03 20:54N 38°41' W 009°25'0 0.0
2017-Oct-03 20:30N 38°41' W 009°25'0 0.0
2017-Oct-03 20:00N 38°41' W 009°25'0 0.0
2017-Oct-03 19:30N 38°41' W 009°25'0 0.0
2017-Oct-03 19:00N 38°41' W 009°25'0 0.0
2017-Oct-03 18:30N 38°41' W 009°25'0 0.0
2017-Oct-03 17:54N 38°41' W 009°25'0 0.0
2017-Oct-03 17:27N 38°41' W 009°25'0 0.0
2017-Oct-03 17:00N 38°41' W 009°25'0 0.0
2017-Oct-03 16:30N 38°41' W 009°25'0 0.0
2017-Oct-03 16:00N 38°41' W 009°25'0 0.0
2017-Oct-03 15:30N 38°41' W 009°25'0 0.0
2017-Oct-03 15:01N 38°41' W 009°25'0 0.0
2017-Oct-03 14:00N 38°41' W 009°25'0 0.0
2017-Oct-03 13:30N 38°41' W 009°25'0 0.0
2017-Oct-03 13:00N 38°41' W 009°25'0 0.0
2017-Oct-03 12:30N 38°41' W 009°25'0 0.0
2017-Oct-03 12:00N 38°41' W 009°25'0 0.0
2017-Oct-03 11:30N 38°41' W 009°25'0 0.0
2017-Oct-03 11:00N 38°41' W 009°25'0 0.0
2017-Oct-03 10:27N 38°41' W 009°25'0 0.0
2017-Oct-03 09:57N 38°41' W 009°25'0 0.0
2017-Oct-03 09:30N 38°41' W 009°25'0 0.0
2017-Oct-03 09:00N 38°41' W 009°25'0 0.0
2017-Oct-03 08:24N 38°41' W 009°25'0 0.0
2017-Oct-03 08:00N 38°41' W 009°25'0 0.0
2017-Oct-03 07:30N 38°41' W 009°25'0 0.0
2017-Oct-03 06:57N 38°41' W 009°25'0 0.0
2017-Oct-03 06:30N 38°41' W 009°25'0 0.0
2017-Oct-03 05:57N 38°41' W 009°25'0 0.0
2017-Oct-03 05:30N 38°41' W 009°25'0 0.0
2017-Oct-03 05:00N 38°41' W 009°25'0 0.0
2017-Oct-03 04:30N 38°41' W 009°25'0 0.0
2017-Oct-03 04:00N 38°41' W 009°25'0 0.0
2017-Oct-03 03:30N 38°41' W 009°25'0 0.0
2017-Oct-03 03:00N 38°41' W 009°25'0 0.0
2017-Oct-03 02:30N 38°41' W 009°25'0 0.0
2017-Oct-03 01:57N 38°41' W 009°25'0 0.0
2017-Oct-03 01:30N 38°41' W 009°25'0 0.0
2017-Oct-03 01:00N 38°41' W 009°25'0 0.0
2017-Oct-03 00:30N 38°41' W 009°25'0 0.0
2017-Oct-03 00:00N 38°41' W 009°25'0 0.0
2017-Oct-02 23:21N 38°41' W 009°25'0 0.0
2017-Oct-02 23:00N 38°41' W 009°25'0 0.0
2017-Oct-02 22:30N 38°41' W 009°25'0 0.0
2017-Oct-02 22:00N 38°41' W 009°25'0 0.0
2017-Oct-02 21:27N 38°41' W 009°25'0 0.0
2017-Oct-02 21:00N 38°41' W 009°25'0 0.0
2017-Oct-02 20:30N 38°41' W 009°25'0 0.0
2017-Oct-02 19:54N 38°41' W 009°25'0 0.0
2017-Oct-02 19:30N 38°41' W 009°25'0 0.0
2017-Oct-02 18:57N 38°41' W 009°25'0 0.0
2017-Oct-02 18:30N 38°41' W 009°25'0 0.0
2017-Oct-02 17:51N 38°41' W 009°25'0 0.0
2017-Oct-02 17:27N 38°41' W 009°25'0 0.0
2017-Oct-02 16:57N 38°41' W 009°25'0 0.0
2017-Oct-02 16:30N 38°41' W 009°25'0 0.0
2017-Oct-02 16:00N 38°41' W 009°25'0 0.0
2017-Oct-02 15:30N 38°41' W 009°25'0 0.0
2017-Oct-02 15:00N 38°41' W 009°25'0 0.0
2017-Oct-02 14:30N 38°41' W 009°25'0 0.0
2017-Oct-02 14:00N 38°41' W 009°25'0 0.0
2017-Oct-02 13:24N 38°41' W 009°25'0 0.0
2017-Oct-02 13:00N 38°41' W 009°25'0 0.0
2017-Oct-02 12:24N 38°41' W 009°25'0 0.0
2017-Oct-02 12:00N 38°41' W 009°25'0 0.0
2017-Oct-02 11:30N 38°41' W 009°25'0 0.0
2017-Oct-02 10:57N 38°41' W 009°25'0 0.0
2017-Oct-02 10:30N 38°41' W 009°25'0 0.0
2017-Oct-02 10:00N 38°41' W 009°25'0 0.0
2017-Oct-02 09:30N 38°41' W 009°25'0 0.0
2017-Oct-02 09:00N 38°41' W 009°25'0 0.0
2017-Oct-02 08:30N 38°41' W 009°25'0 0.0
2017-Oct-02 07:54N 38°41' W 009°25'0 0.0
2017-Oct-02 07:30N 38°41' W 009°25'0 0.0
2017-Oct-02 07:00N 38°41' W 009°25'0 0.0
2017-Oct-02 06:30N 38°41' W 009°25'0 0.0
2017-Oct-02 06:00N 38°41' W 009°25'0 0.0
2017-Oct-02 05:30N 38°41' W 009°25'0 0.0
2017-Oct-02 05:00N 38°41' W 009°25'0 0.0
2017-Oct-02 04:27N 38°41' W 009°25'0 0.0
2017-Oct-02 04:00N 38°41' W 009°25'0 0.0
2017-Oct-02 03:30N 38°41' W 009°25'0 0.0
2017-Oct-02 03:00N 38°41' W 009°25'0 0.0
2017-Oct-02 02:30N 38°41' W 009°25'0 0.0
2017-Oct-02 02:00N 38°41' W 009°25'0 0.0
2017-Oct-02 01:27N 38°41' W 009°25'0 0.0
2017-Oct-02 01:00N 38°41' W 009°25'0 0.0
2017-Oct-02 00:30N 38°41' W 009°25'0 0.0
2017-Oct-02 00:00N 38°41' W 009°25'0 0.0
2017-Oct-01 23:30N 38°41' W 009°25'0 0.0
2017-Oct-01 22:57N 38°41' W 009°25'0 0.0
2017-Oct-01 22:30N 38°41' W 009°25'0 0.0
2017-Oct-01 21:48N 38°41' W 009°25'0 0.0
2017-Oct-01 21:30N 38°41' W 009°25'0 0.0
2017-Oct-01 20:54N 38°41' W 009°25'0 0.0
2017-Oct-01 20:30N 38°41' W 009°25'0 0.0
2017-Oct-01 20:00N 38°41' W 009°25'0 0.0
2017-Oct-01 19:21N 38°41' W 009°25'0 0.0
2017-Oct-01 19:00N 38°41' W 009°25'0 0.0
2017-Oct-01 18:30N 38°41' W 009°25'0 0.0
2017-Oct-01 17:57N 38°41' W 009°25'0 0.0
2017-Oct-01 17:30N 38°41' W 009°25'0 0.0
2017-Oct-01 17:00N 38°41' W 009°25'0 0.0
2017-Oct-01 16:30N 38°41' W 009°25'0 0.0
2017-Oct-01 16:00N 38°41' W 009°25'0 0.0
2017-Oct-01 15:30N 38°41' W 009°25'0 0.0
2017-Oct-01 15:00N 38°41' W 009°25'0 0.0
2017-Oct-01 14:30N 38°41' W 009°25'0 0.0
2017-Oct-01 14:00N 38°41' W 009°25'0 0.0
2017-Oct-01 13:24N 38°41' W 009°25'0 0.0
2017-Oct-01 13:00N 38°41' W 009°25'0 0.0
2017-Oct-01 12:30N 38°41' W 009°25'0 0.0
2017-Oct-01 12:00N 38°41' W 009°25'0 0.0
2017-Oct-01 11:30N 38°41' W 009°25'0 0.0
2017-Oct-01 11:00N 38°41' W 009°25'0 0.0
2017-Oct-01 10:30N 38°41' W 009°25'0 0.0
2017-Oct-01 10:00N 38°41' W 009°25'0 0.0
2017-Oct-01 09:30N 38°41' W 009°25'0 0.0
2017-Oct-01 09:00N 38°41' W 009°25'0 0.0
2017-Oct-01 08:30N 38°41' W 009°25'0 0.0
2017-Oct-01 07:57N 38°41' W 009°25'0 0.0
2017-Oct-01 07:27N 38°41' W 009°25'0 0.0
2017-Oct-01 07:00N 38°41' W 009°25'0 0.0
2017-Oct-01 06:27N 38°41' W 009°25'0 0.0
2017-Oct-01 06:00N 38°41' W 009°25'0 0.0
2017-Oct-01 05:30N 38°41' W 009°25'0 0.0
2017-Oct-01 05:00N 38°41' W 009°25'0 0.0
2017-Oct-01 04:30N 38°41' W 009°25'0 0.0
2017-Oct-01 04:00N 38°41' W 009°25'0 0.0
2017-Oct-01 03:30N 38°41' W 009°25'0 0.0
2017-Oct-01 02:54N 38°41' W 009°25'  

Dump ship's entire track history